Time;durP1;ratioP1;P1;durP2;ratioP2;P2;SDS_P1;SDS_P2;PMS_P1;PMS_P2;Temp;Humidity;BMP_temperature;BMP_pressure;BME280_temperature;BME280_humidity;BME280_pressure;Samples;Min_cycle;Max_cycle;Signal;HPM_P1;HPM_P2
2022/07/22 00:01:32;;;;;;;;;;;;;;;19.77;70.41;100165.73;1641849;87;22205;-71
2022/07/22 00:03:59;;;;;;;;;;;;;;;19.74;70.58;100174.52;1647924;87;20218;-71
2022/07/22 00:06:28;;;;;;;;;;;;;;;19.70;70.71;100175.73;1631977;88;20152;-71
2022/07/22 00:08:56;;;;;;;;;;;;;;;19.70;70.69;100175.73;1642838;87;20139;-72
2022/07/22 00:11:24;;;;;;;;;;;;;;;19.67;70.78;100178.53;1649111;87;20241;-71
2022/07/22 00:13:50;;;;;;;;;;;;;;;19.65;70.86;100176.73;1633747;88;21187;-70
2022/07/22 00:16:16;;;;;;;;;;;;;;;19.64;70.95;100179.75;1642574;86;20446;-72
2022/07/22 00:18:43;;;;;;;;;;;;;;;19.63;70.98;100174.08;1640766;86;20235;-71
2022/07/22 00:21:09;;;;;;;;;;;;;;;19.61;71.06;100182.55;1644551;85;20228;-70
2022/07/22 00:23:35;;;;;;;;;;;;;;;19.59;71.20;100185.34;1632398;85;20152;-70
2022/07/22 00:26:02;;;;;;;;;;;;;;;19.56;71.30;100180.57;1629748;86;21232;-71
2022/07/22 00:28:28;;;;;;;;;;;;;;;19.55;71.40;100185.77;1586747;89;20188;-73
2022/07/22 00:30:56;;;;;;;;;;;;;;;19.52;71.47;100177.72;1593666;87;20192;-72
2022/07/22 00:33:23;;;;;;;;;;;;;;;19.50;71.62;100191.35;1620591;87;20194;-71
2022/07/22 00:35:49;;;;;;;;;;;;;;;19.51;71.62;100187.52;1614473;87;20193;-72
2022/07/22 00:38:16;;;;;;;;;;;;;;;19.50;71.59;100184.58;1620097;87;21138;-70
2022/07/22 00:40:42;;;;;;;;;;;;;;;19.50;71.63;100184.58;1618167;87;20175;-71
2022/07/22 00:43:09;;;;;;;;;;;;;;;19.49;71.60;100187.06;1622852;87;20448;-72
2022/07/22 00:45:37;;;;;;;;;;;;;;;19.49;71.63;100176.23;1619932;87;20813;-73
2022/07/22 00:48:03;;;;;;;;;;;;;;;19.48;71.62;100182.22;1621187;87;20387;-73
2022/07/22 00:50:30;;;;;;;;;;;;;;;19.48;71.62;100184.92;1619777;87;21169;-71
2022/07/22 00:52:57;;;;;;;;;;;;;;;19.48;71.60;100186.27;1620399;87;20155;-73
2022/07/22 00:55:24;;;;;;;;;;;;;;;19.46;71.62;100183.08;1620366;87;20175;-71
2022/07/22 00:57:51;;;;;;;;;;;;;;;19.39;71.83;100183.59;1619514;87;20605;-71
2022/07/22 01:00:19;;;;;;;;;;;;;;;19.43;71.68;100188.59;1620358;87;20145;-71
2022/07/22 01:02:46;;;;;;;;;;;;;;;19.41;71.72;100192.20;1621553;87;21162;-72
2022/07/22 01:05:12;;;;;;;;;;;;;;;19.23;72.26;100189.31;1619929;87;20205;-71
2022/07/22 01:07:40;;;;;;;;;;;;;;;19.18;72.52;100184.05;1620013;87;20224;-72
2022/07/22 01:10:07;;;;;;;;;;;;;;;19.17;72.65;100183.83;1619797;87;20624;-73
2022/07/22 01:12:35;;;;;;;;;;;;;;;19.14;72.71;100182.55;1620422;87;20216;-71
2022/07/22 01:15:01;;;;;;;;;;;;;;;19.12;72.68;100183.45;1619994;87;21149;-72
2022/07/22 01:17:28;;;;;;;;;;;;;;;19.11;72.74;100181.05;1621299;87;20450;-72
2022/07/22 01:20:04;;;;;;;;;;;;;;;19.09;72.91;100186.02;1619408;87;20438;-72
2022/07/22 01:22:31;;;;;;;;;;;;;;;19.07;73.00;100182.83;1619598;87;20197;-73
2022/07/22 01:24:58;;;;;;;;;;;;;;;19.06;73.12;100182.60;1619692;87;20382;-72
2022/07/22 01:27:25;;;;;;;;;;;;;;;19.25;72.68;100181.66;1621054;87;21198;-73
2022/07/22 01:29:54;;;;;;;;;;;;;;;19.29;72.57;100188.02;1621714;87;20149;-72
2022/07/22 01:32:20;;;;;;;;;;;;;;;19.33;72.49;100190.87;1620032;88;20145;-72
2022/07/22 01:34:47;;;;;;;;;;;;;;;19.34;72.51;100189.17;1623023;88;20218;-72
2022/07/22 01:37:21;;;;;;;;;;;;;;;19.36;72.52;100188.86;1614573;87;20220;-71
2022/07/22 01:39:48;;;;;;;;;;;;;;;19.35;72.58;100184.02;1620463;87;21221;-72
2022/07/22 01:42:15;;;;;;;;;;;;;;;19.35;72.63;100190.78;1620662;87;20249;-72
2022/07/22 01:44:43;;;;;;;;;;;;;;;19.35;72.70;100194.06;1618935;87;20193;-71
2022/07/22 01:47:10;;;;;;;;;;;;;;;19.35;72.75;100200.83;1620300;87;20217;-72
2022/07/22 01:49:37;;;;;;;;;;;;;;;19.34;72.84;100199.22;1619935;87;20153;-70
2022/07/22 01:52:04;;;;;;;;;;;;;;;19.26;73.16;100200.06;1617579;87;21226;-72
2022/07/22 01:54:32;;;;;;;;;;;;;;;19.32;73.01;100194.70;1620218;87;20258;-72
2022/07/22 01:56:59;;;;;;;;;;;;;;;19.32;73.04;100194.14;1620239;87;20173;-72
2022/07/22 01:59:26;;;;;;;;;;;;;;;19.30;73.10;100201.78;1620283;87;20506;-72
2022/07/22 02:01:54;;;;;;;;;;;;;;;19.29;73.19;100205.62;1619800;87;20271;-71
2022/07/22 02:04:21;;;;;;;;;;;;;;;19.28;73.28;100207.28;1621031;87;22639;-71
2022/07/22 02:06:47;;;;;;;;;;;;;;;19.24;73.41;100197.66;1620954;87;20206;-72
2022/07/22 02:09:15;;;;;;;;;;;;;;;19.06;73.84;100196.92;1621518;88;20173;-72
2022/07/22 02:11:43;;;;;;;;;;;;;;;18.97;74.33;100211.82;1621543;87;20154;-72
2022/07/22 02:14:11;;;;;;;;;;;;;;;18.96;74.50;100207.53;1620621;87;20167;-71
2022/07/22 02:16:40;;;;;;;;;;;;;;;18.95;74.60;100211.36;1614782;87;21457;-73
2022/07/22 02:19:18;;;;;;;;;;;;;;;18.95;74.72;100206.48;1622110;87;20591;-72
2022/07/22 02:21:57;;;;;;;;;;;;;;;18.94;74.80;100213.02;1599539;88;20150;-72
2022/07/22 02:24:29;;;;;;;;;;;;;;;18.99;74.68;100210.16;1620813;87;20154;-73
2022/07/22 02:27:01;;;;;;;;;;;;;;;19.00;74.70;100212.30;1618647;87;20149;-72
2022/07/22 02:29:37;;;;;;;;;;;;;;;19.01;74.75;100209.83;1622936;88;21357;-71
2022/07/22 02:32:04;;;;;;;;;;;;;;;19.01;74.75;100213.32;1622166;88;20499;-70
2022/07/22 02:34:31;;;;;;;;;;;;;;;19.04;74.75;100212.68;1619073;88;20189;-71
2022/07/22 02:36:59;;;;;;;;;;;;;;;19.04;74.76;100215.39;1591585;88;20257;-71
2022/07/22 02:39:27;;;;;;;;;;;;;;;19.06;74.81;100217.79;1617096;87;20193;-70
2022/07/22 02:42:00;;;;;;;;;;;;;;;19.07;74.79;100216.09;1592256;87;21266;-70
2022/07/22 02:44:27;;;;;;;;;;;;;;;19.10;74.70;100218.73;1617020;87;20151;-69
2022/07/22 02:46:55;;;;;;;;;;;;;;;19.31;74.08;100216.91;1634191;85;20182;-70
2022/07/22 02:49:23;;;;;;;;;;;;;;;19.35;73.81;100223.28;1649018;86;20348;-71
2022/07/22 02:51:50;;;;;;;;;;;;;;;19.36;73.69;100222.16;1633612;88;20095;-70
2022/07/22 02:54:25;;;;;;;;;;;;;;;19.39;73.50;100225.57;1589589;89;21684;-70
2022/07/22 02:57:02;;;;;;;;;;;;;;;19.41;73.38;100223.34;1622938;88;20153;-70
2022/07/22 02:59:31;;;;;;;;;;;;;;;19.42;73.27;100229.55;1622797;88;20499;-69
2022/07/22 03:02:06;;;;;;;;;;;;;;;19.44;73.21;100231.36;1623038;88;20158;-70
2022/07/22 03:04:41;;;;;;;;;;;;;;;19.48;73.16;100235.56;1622721;87;20218;-70
2022/07/22 03:07:13;;;;;;;;;;;;;;;19.51;73.11;100235.70;1621628;87;21337;-68
2022/07/22 03:09:46;;;;;;;;;;;;;;;19.54;73.01;100229.64;1594914;88;20145;-70
2022/07/22 03:12:20;;;;;;;;;;;;;;;19.59;72.90;100232.75;1621583;88;20149;-70
2022/07/22 03:15:02;;;;;;;;;;;;;;;19.64;72.81;100229.34;1621493;88;20894;-70
2022/07/22 03:17:37;;;;;;;;;;;;;;;19.70;72.77;100227.22;1621613;88;20173;-71
2022/07/22 03:20:24;;;;;;;;;;;;;;;19.74;72.74;100234.92;1594395;88;20225;-70
2022/07/22 03:22:50;;;;;;;;;;;;;;;19.80;72.78;100239.61;1621640;88;20165;-70
2022/07/22 03:25:27;;;;;;;;;;;;;;;19.86;72.78;100232.32;1616272;88;20178;-70
2022/07/22 03:27:58;;;;;;;;;;;;;;;19.95;72.73;100232.28;1616268;88;20203;-70
2022/07/22 03:30:30;;;;;;;;;;;;;;;20.02;72.62;100237.98;1621651;88;20511;-70
2022/07/22 03:32:57;;;;;;;;;;;;;;;20.09;72.48;100233.39;1621307;88;21280;-70
2022/07/22 03:35:24;;;;;;;;;;;;;;;20.15;72.35;100233.44;1622438;87;20170;-70
2022/07/22 03:37:51;;;;;;;;;;;;;;;20.20;72.29;100233.23;1648818;87;20135;-69
2022/07/22 03:40:18;;;;;;;;;;;;;;;20.29;71.97;100237.25;1658769;84;20404;-70
2022/07/22 03:42:44;;;;;;;;;;;;;;;20.35;71.60;100232.66;1649535;87;20143;-69
2022/07/22 03:45:11;;;;;;;;;;;;;;;20.42;71.31;100233.48;1649380;87;21575;-71
2022/07/22 03:47:40;;;;;;;;;;;;;;;20.46;70.76;100240.39;1647100;85;20202;-70
2022/07/22 03:50:08;;;;;;;;;;;;;;;20.48;70.52;100243.58;1628303;86;20163;-70
2022/07/22 03:52:36;;;;;;;;;;;;;;;20.52;70.39;100239.11;1637310;86;20151;-71
2022/07/22 03:55:05;;;;;;;;;;;;;;;20.58;70.33;100241.29;1640298;86;20439;-70
2022/07/22 03:57:32;;;;;;;;;;;;;;;20.66;70.25;100244.25;1646789;85;21589;-70
2022/07/22 04:00:00;;;;;;;;;;;;;;;20.53;69.99;100250.18;1645722;85;21329;-70
2022/07/22 04:02:27;;;;;;;;;;;;;;;20.48;69.81;100245.73;1630812;86;20515;-71
2022/07/22 04:04:53;;;;;;;;;;;;;;;20.71;68.93;100248.92;1552896;91;21099;-70
2022/07/22 04:07:20;;;;;;;;;;;;;;;20.77;68.19;100256.31;1639258;85;20198;-71
2022/07/22 04:09:46;;;;;;;;;;;;;;;20.79;67.78;100249.40;1631432;86;21812;-71
2022/07/22 04:12:13;;;;;;;;;;;;;;;20.82;67.36;100254.16;1639500;86;20176;-70
2022/07/22 04:14:43;;;;;;;;;;;;;;;20.84;67.10;100257.35;1636989;86;20140;-70
2022/07/22 04:17:10;;;;;;;;;;;;;;;20.89;66.94;100246.05;1644867;85;20709;-71
2022/07/22 04:19:38;;;;;;;;;;;;;;;20.93;66.59;100245.06;1633042;88;20195;-69
2022/07/22 04:22:08;;;;;;;;;;;;;;;20.99;66.47;100241.02;1638873;86;21178;-71
2022/07/22 04:24:35;;;;;;;;;;;;;;;21.04;65.99;100239.44;1646908;85;20334;-71
2022/07/22 04:27:03;;;;;;;;;;;;;;;21.10;65.64;100246.81;1631366;86;20365;-71
2022/07/22 04:29:29;;;;;;;;;;;;;;;;;;1630561;86;20697;-71
2022/07/22 04:31:56;;;;;;;;;;;;;;;21.17;64.92;100251.13;1634038;88;20144;-70
2022/07/22 04:34:23;;;;;;;;;;;;;;;21.19;64.82;100246.16;1629371;87;21345;-72
2022/07/22 04:36:50;;;;;;;;;;;;;;;21.24;64.61;100250.01;1612925;87;20567;-69
2022/07/22 04:39:17;;;;;;;;;;;;;;;21.30;64.34;100254.67;1637796;86;20171;-70
2022/07/22 04:41:46;;;;;;;;;;;;;;;21.35;64.03;100259.11;1640059;86;20416;-71
2022/07/22 04:44:14;;;;;;;;;;;;;;;21.39;63.65;100255.95;1646676;85;20474;-71
2022/07/22 04:46:40;;;;;;;;;;;;;;;21.44;63.56;100254.38;1646677;85;21403;-71
2022/07/22 04:49:08;;;;;;;;;;;;;;;21.51;63.22;100255.97;1633550;88;20148;-71
2022/07/22 04:51:35;;;;;;;;;;;;;;;21.54;62.83;100256.66;1643630;87;20147;-70
2022/07/22 04:54:03;;;;;;;;;;;;;;;21.59;62.79;100260.53;1640353;86;20255;-70
2022/07/22 04:56:31;;;;;;;;;;;;;;;21.66;62.87;100260.75;1642205;86;20604;-69
2022/07/22 04:58:57;;;;;;;;;;;;;;;21.73;62.49;100263.70;1648458;85;21134;-71
2022/07/22 05:01:26;;;;;;;;;;;;;;;21.81;62.30;100261.99;1644389;85;20147;-72
2022/07/22 05:03:54;;;;;;;;;;;;;;;21.92;62.28;100267.80;1630297;86;20231;-71
2022/07/22 05:06:20;;;;;;;;;;;;;;;22.02;62.23;100257.81;1640982;86;20444;-71
2022/07/22 05:08:48;;;;;;;;;;;;;;;22.14;62.18;100261.08;1646327;85;20135;-70
2022/07/22 05:11:15;;;;;;;;;;;;;;;22.24;62.05;100257.37;1631502;86;21186;-71
2022/07/22 05:13:42;;;;;;;;;;;;;;;22.37;61.64;100262.77;1640446;86;20172;-71
2022/07/22 05:16:08;;;;;;;;;;;;;;;22.43;61.11;100259.47;1647170;85;20151;-70
2022/07/22 05:18:37;;;;;;;;;;;;;;;22.47;60.81;100270.45;1632781;88;20152;-69
2022/07/22 05:21:06;;;;;;;;;;;;;;;22.51;60.52;100276.81;1637988;86;20549;-73
2022/07/22 05:23:34;;;;;;;;;;;;;;;22.55;60.35;100271.48;1646152;85;21815;-72
2022/07/22 05:26:00;;;;;;;;;;;;;;;22.62;60.27;100269.74;1643284;85;20191;-72
2022/07/22 05:28:27;;;;;;;;;;;;;;;22.74;60.45;100269.47;1630663;86;20863;-73
2022/07/22 05:30:53;;;;;;;;;;;;;;;22.93;60.10;100271.02;1640868;86;20173;-71
2022/07/22 05:33:20;;;;;;;;;;;;;;;23.06;59.62;100269.81;1646713;85;20411;-70
2022/07/22 05:36:09;;;;;;;;;;;;;;;23.17;59.16;100276.94;1646416;85;21236;-71
2022/07/22 05:38:37;;;;;;;;;;;;;;;23.22;58.71;100264.98;1646938;85;20806;-72
2022/07/22 05:41:05;;;;;;;;;;;;;;;23.31;58.81;100275.94;1630747;86;20153;-72
2022/07/22 05:43:31;;;;;;;;;;;;;;;23.37;58.30;100269.09;1640247;86;20164;-71
2022/07/22 05:45:58;;;;;;;;;;;;;;;23.40;58.16;100277.14;1647130;85;20438;-70
2022/07/22 05:48:24;;;;;;;;;;;;;;;23.40;58.15;100268.97;1604654;86;21935;-70
2022/07/22 05:50:51;;;;;;;;;;;;;;;23.41;58.01;100276.00;1587027;89;20164;-71
2022/07/22 05:53:19;;;;;;;;;;;;;;;23.45;57.70;100271.42;1631334;86;20148;-72
2022/07/22 05:55:45;;;;;;;;;;;;;;;23.50;57.09;100267.08;1631309;86;20367;-71
2022/07/22 05:58:14;;;;;;;;;;;;;;;23.55;56.85;100281.80;1630635;86;20431;-71
2022/07/22 06:00:41;;;;;;;;;;;;;;;23.56;56.15;100272.50;1631070;86;21518;-70
2022/07/22 06:03:08;;;;;;;;;;;;;;;23.59;56.02;100279.16;1630200;86;20255;-71
2022/07/22 06:05:35;;;;;;;;;;;;;;;23.63;56.23;100269.95;1630828;86;21153;-72
2022/07/22 06:08:03;;;;;;;;;;;;;;;23.69;55.80;100273.78;1631092;86;20214;-71
2022/07/22 06:10:37;;;;;;;;;;;;;;;23.69;55.75;100267.78;1630482;86;20235;-71
2022/07/22 06:13:04;;;;;;;;;;;;;;;23.70;56.09;100271.30;1630466;86;21181;-72
2022/07/22 06:15:31;;;;;;;;;;;;;;;23.68;56.62;100264.00;1630648;86;20548;-72
2022/07/22 06:17:58;;;;;;;;;;;;;;;23.74;57.08;100273.53;1632508;86;20514;-72
2022/07/22 06:20:25;;;;;;;;;;;;;;;23.82;57.10;100267.09;1633604;88;20148;-70
2022/07/22 06:22:52;;;;;;;;;;;;;;;23.91;56.84;100267.70;1633361;88;20223;-73
2022/07/22 06:25:19;;;;;;;;;;;;;;;23.98;56.50;100267.08;1631705;86;21157;-71
2022/07/22 06:27:45;;;;;;;;;;;;;;;23.98;56.09;100281.50;1609875;86;20150;-71
2022/07/22 06:30:12;;;;;;;;;;;;;;;23.93;55.97;100272.81;1625142;86;20214;-71
2022/07/22 06:32:40;;;;;;;;;;;;;;;23.90;56.08;100272.16;1631595;86;20250;-72
2022/07/22 06:35:07;;;;;;;;;;;;;;;23.89;56.34;100268.64;1630065;86;20545;-71
2022/07/22 06:37:34;;;;;;;;;;;;;;;23.91;56.87;100277.83;1630528;86;21124;-71
2022/07/22 06:40:02;;;;;;;;;;;;;;;23.91;56.69;100273.16;1631666;86;20156;-72
2022/07/22 06:42:48;;;;;;;;;;;;;;;23.90;56.38;100284.44;1567270;91;20200;-70
2022/07/22 06:45:23;;;;;;;;;;;;;;;23.87;56.25;100275.80;1566885;90;21209;-72
2022/07/22 06:48:09;;;;;;;;;;;;;;;23.91;56.05;100273.16;1600590;86;20188;-71
2022/07/22 06:50:36;;;;;;;;;;;;;;;23.98;55.71;100277.41;1630522;86;22014;-71
2022/07/22 06:53:04;;;;;;;;;;;;;;;24.01;55.08;100284.89;1630037;86;20237;-70
2022/07/22 06:55:32;;;;;;;;;;;;;;;24.01;54.61;100278.06;1630511;86;20199;-73
2022/07/22 06:58:00;;;;;;;;;;;;;;;23.80;55.11;100270.76;1629869;86;20676;-72
2022/07/22 07:00:27;;;;;;;;;;;;;;;23.86;54.75;100272.08;1631544;86;20541;-74
2022/07/22 07:03:14;;;;;;;;;;;;;;;23.93;53.78;100272.24;1587253;88;22094;-72
2022/07/22 07:05:40;;;;;;;;;;;;;;;23.98;53.73;100276.05;1587542;90;20184;-71
2022/07/22 07:08:07;;;;;;;;;;;;;;;23.99;53.48;100274.92;1604525;88;20153;-72
2022/07/22 07:10:33;;;;;;;;;;;;;;;24.00;54.06;100272.98;1631950;88;20539;-72
2022/07/22 07:13:01;;;;;;;;;;;;;;;24.09;53.80;100282.56;1631329;88;20214;-71
2022/07/22 07:15:39;;;;;;;;;;;;;;;24.15;52.27;100283.63;1631968;88;21887;-72
2022/07/22 07:18:07;;;;;;;;;;;;;;;24.14;52.03;100281.48;1632780;88;20194;-70
2022/07/22 07:20:33;;;;;;;;;;;;;;;24.11;52.30;100289.80;1591348;88;20156;-72
2022/07/22 07:23:01;;;;;;;;;;;;;;;24.08;52.55;100289.14;1627488;86;20163;-71
2022/07/22 07:25:29;;;;;;;;;;;;;;;24.14;52.61;100283.42;1630612;86;20148;-71
2022/07/22 07:27:56;;;;;;;;;;;;;;;24.17;52.62;100275.31;1631661;86;21513;-72
2022/07/22 07:30:25;;;;;;;;;;;;;;;24.24;52.11;100282.87;1627266;86;20204;-72
2022/07/22 07:32:52;;;;;;;;;;;;;;;24.33;51.95;100287.56;1627832;86;20251;-71
2022/07/22 07:35:18;;;;;;;;;;;;;;;24.40;51.91;100281.47;1629649;86;20203;-72
2022/07/22 07:37:46;;;;;;;;;;;;;;;24.50;51.58;100278.20;1631171;86;20293;-71
2022/07/22 07:40:12;;;;;;;;;;;;;;;24.59;50.77;100281.52;1630886;86;22052;-72
2022/07/22 07:42:40;;;;;;;;;;;;;;;24.74;49.95;100290.78;1631093;86;20195;-71
2022/07/22 07:45:08;;;;;;;;;;;;;;;24.85;50.56;100282.25;1630389;86;20140;-71
2022/07/22 07:47:34;;;;;;;;;;;;;;;24.96;48.75;100292.80;1630701;86;20208;-72
2022/07/22 07:50:03;;;;;;;;;;;;;;;24.97;48.32;100294.37;1628772;86;20187;-70
2022/07/22 07:52:30;;;;;;;;;;;;;;;25.01;48.53;100289.79;1630058;86;21184;-72
2022/07/22 07:54:57;;;;;;;;;;;;;;;25.09;48.52;100292.08;1630006;86;20282;-72
2022/07/22 07:57:23;;;;;;;;;;;;;;;25.16;49.06;100292.81;1605955;88;20418;-72
2022/07/22 07:59:50;;;;;;;;;;;;;;;25.44;47.91;100291.97;1633459;88;20184;-73
2022/07/22 08:02:16;;;;;;;;;;;;;;;25.35;48.30;100294.73;1633903;88;20169;-72
2022/07/22 08:04:43;;;;;;;;;;;;;;;25.36;47.42;100295.72;1633384;88;21163;-72
2022/07/22 08:07:12;;;;;;;;;;;;;;;25.38;47.13;100294.00;1631062;86;20485;-71
2022/07/22 08:09:40;;;;;;;;;;;;;;;25.40;46.87;100296.59;1630575;86;20188;-71
2022/07/22 08:12:10;;;;;;;;;;;;;;;25.34;46.51;100302.14;1627756;86;20445;-71
2022/07/22 08:14:41;;;;;;;;;;;;;;;25.28;46.76;100309.64;1626116;86;20219;-71
2022/07/22 08:17:26;;;;;;;;;;;;;;;25.45;46.90;100303.70;1630681;86;21151;-71
2022/07/22 08:19:54;;;;;;;;;;;;;;;25.41;46.28;100309.10;1622966;86;20141;-71
2022/07/22 08:22:21;;;;;;;;;;;;;;;25.44;46.10;100312.48;1632374;86;20413;-73
2022/07/22 08:24:48;;;;;;;;;;;;;;;25.52;46.10;100300.30;1630849;86;20657;-71
2022/07/22 08:27:18;;;;;;;;;;;;;;;25.60;45.41;100300.62;1630642;86;20437;-71
2022/07/22 08:29:44;;;;;;;;;;;;;;;25.62;45.54;100302.42;1600814;88;21879;-72
2022/07/22 08:32:11;;;;;;;;;;;;;;;25.65;45.78;100302.48;1620591;86;20133;-72
2022/07/22 08:34:37;;;;;;;;;;;;;;;25.71;45.09;100301.60;1606244;89;20218;-71
2022/07/22 08:37:05;;;;;;;;;;;;;;;25.72;45.18;100294.97;1611405;86;20176;-72
2022/07/22 08:39:33;;;;;;;;;;;;;;;25.81;44.58;100320.16;1630754;86;20115;-74
2022/07/22 08:41:59;;;;;;;;;;;;;;;25.81;44.56;100307.85;1630930;86;21154;-73
2022/07/22 08:44:29;;;;;;;;;;;;;;;25.80;44.48;100297.23;1630061;86;20439;-72
2022/07/22 08:46:56;;;;;;;;;;;;;;;25.85;44.87;100306.55;1631526;86;20799;-77
2022/07/22 08:49:24;;;;;;;;;;;;;;;25.96;44.48;100300.09;1624458;86;20182;-72
2022/07/22 08:51:53;;;;;;;;;;;;;;;26.07;43.82;100302.20;1628860;86;20239;-71
2022/07/22 08:54:22;;;;;;;;;;;;;;;26.30;42.48;100300.19;1628185;86;21348;-71
2022/07/22 08:56:51;;;;;;;;;;;;;;;26.47;41.30;100309.02;1631038;86;20187;-72
2022/07/22 08:59:19;;;;;;;;;;;;;;;26.57;40.95;100302.92;1630867;86;20405;-73
2022/07/22 09:02:06;;;;;;;;;;;;;;;26.59;40.80;100312.94;1630654;86;20157;-71
2022/07/22 09:04:56;;;;;;;;;;;;;;;26.57;40.86;100329.73;1614863;86;20206;-71
2022/07/22 09:07:36;;;;;;;;;;;;;;;26.59;40.93;100304.72;1606378;89;21851;-72
2022/07/22 09:10:09;;;;;;;;;;;;;;;26.58;40.51;100305.86;1625142;86;20169;-73
2022/07/22 09:12:51;;;;;;;;;;;;;;;26.51;40.18;100307.15;1596772;88;20154;-71
2022/07/22 09:15:27;;;;;;;;;;;;;;;26.47;40.44;100302.17;1604018;89;20530;-71
2022/07/22 09:17:55;;;;;;;;;;;;;;;26.59;40.94;100311.58;1620650;86;20144;-71
2022/07/22 09:20:24;;;;;;;;;;;;;;;26.71;40.30;100305.05;1643242;85;21184;-72
2022/07/22 09:23:17;;;;;;;;;;;;;;;26.82;39.56;100304.62;1628606;86;20230;-72
2022/07/22 09:25:44;;;;;;;;;;;;;;;26.97;39.37;100305.56;1640814;86;20593;-70
2022/07/22 09:28:29;;;;;;;;;;;;;;;27.10;39.21;100310.99;1587969;88;21156;-72
2022/07/22 09:31:25;;;;;;;;;;;;;;;27.26;39.45;100304.73;1611405;87;20200;-71
2022/07/22 09:33:53;;;;;;;;;;;;;;;27.39;39.72;100307.22;1630673;86;22674;-72
2022/07/22 09:36:26;;;;;;;;;;;;;;;27.45;40.26;100308.45;1640114;86;20195;-70
2022/07/22 09:38:54;;;;;;;;;;;;;;;27.48;40.34;100314.55;1646885;85;20229;-71
2022/07/22 09:41:21;;;;;;;;;;;;;;;27.47;40.14;100307.47;1630750;86;20221;-72
2022/07/22 09:43:49;;;;;;;;;;;;;;;27.48;40.77;100329.06;1640658;86;20179;-71
2022/07/22 09:46:16;;;;;;;;;;;;;;;27.51;40.92;100325.56;1647176;85;21086;-72
2022/07/22 09:48:44;;;;;;;;;;;;;;;27.60;40.83;100321.90;1624180;86;20193;-71
2022/07/22 09:51:31;;;;;;;;;;;;;;;27.72;40.46;100315.35;1629682;86;20249;-71
2022/07/22 09:54:15;;;;;;;;;;;;;;;27.79;40.16;100320.14;1621847;88;20206;-71
2022/07/22 09:56:41;;;;;;;;;;;;;;;27.72;40.32;100326.33;1615639;86;20259;-71
2022/07/22 09:59:09;;;;;;;;;;;;;;;27.62;40.06;100321.53;1640274;86;21170;-72
2022/07/22 10:01:37;;;;;;;;;;;;;;;27.61;40.33;100350.15;1643384;85;20393;-70
2022/07/22 10:04:04;;;;;;;;;;;;;;;27.62;40.45;100321.53;1630799;86;20156;-72
2022/07/22 10:06:33;;;;;;;;;;;;;;;27.64;39.90;100328.00;1640573;86;20168;-71
2022/07/22 10:08:59;;;;;;;;;;;;;;;27.66;40.45;100315.48;1625514;87;20165;-71
2022/07/22 10:11:26;;;;;;;;;;;;;;;27.72;39.47;100328.29;1606105;89;21152;-70
2022/07/22 10:13:54;;;;;;;;;;;;;;;27.67;39.74;100336.27;1631910;86;20398;-70
2022/07/22 10:16:20;;;;;;;;;;;;;;;27.64;40.31;100338.98;1647043;85;20185;-73
2022/07/22 10:18:46;;;;;;;;;;;;;;;27.63;39.88;100310.76;1606459;88;20154;-71
2022/07/22 10:21:14;;;;;;;;;;;;;;;27.64;39.95;100315.09;1641348;86;20168;-71
2022/07/22 10:24:17;;;;;;;;;;;;;;;27.71;39.67;100319.86;1646439;85;21184;-71
2022/07/22 10:26:50;;;;;;;;;;;;;;;27.72;39.52;100315.35;1623227;87;20141;-72
2022/07/22 10:29:32;;;;;;;;;;;;;;;27.71;38.96;100314.38;1623102;88;20203;-70
2022/07/22 10:32:21;;;;;;;;;;;;;;;27.73;39.23;100323.78;1624291;85;20732;-71
2022/07/22 10:35:12;;;;;;;;;;;;;;;27.75;38.77;100320.08;1606218;89;20150;-73
2022/07/22 10:37:43;;;;;;;;;;;;;;;27.76;38.93;100318.94;1615745;89;21221;-72
2022/07/22 10:40:16;;;;;;;;;;;;;;;27.85;38.18;100317.84;1596030;88;20150;-71
2022/07/22 10:43:03;;;;;;;;;;;;;;;27.88;38.04;100326.69;1606384;89;20158;-71
2022/07/22 10:45:43;;;;;;;;;;;;;;;27.93;38.20;100319.45;1615467;89;20149;-71
2022/07/22 10:48:17;;;;;;;;;;;;;;;28.02;38.53;100322.67;1615580;89;20196;-72
2022/07/22 10:50:50;;;;;;;;;;;;;;;28.02;38.36;100313.84;1621848;88;21328;-72
2022/07/22 10:53:20;;;;;;;;;;;;;;;27.95;37.77;100326.16;1621740;88;20146;-70
2022/07/22 10:56:05;;;;;;;;;;;;;;;27.94;37.42;100321.84;1606987;87;20154;-70
2022/07/22 10:58:35;;;;;;;;;;;;;;;28.00;37.86;100316.77;1643489;87;20147;-71
2022/07/22 11:01:06;;;;;;;;;;;;;;;28.11;38.01;100330.00;1649550;86;20238;-71
2022/07/22 11:03:33;;;;;;;;;;;;;;;28.13;37.79;100319.41;1632653;87;21518;-71
2022/07/22 11:06:20;;;;;;;;;;;;;;;28.03;37.87;100324.23;1566068;91;20142;-72
2022/07/22 11:08:51;;;;;;;;;;;;;;;28.00;38.28;100333.23;1585147;89;20479;-72
2022/07/22 11:11:18;;;;;;;;;;;;;;;28.01;37.33;100329.34;1566513;91;20633;-72
2022/07/22 11:13:46;;;;;;;;;;;;;;;28.02;37.63;100334.44;1566387;91;20481;-71
2022/07/22 11:16:21;;;;;;;;;;;;;;;28.05;37.31;100346.63;1566324;91;21231;-71
2022/07/22 11:18:55;;;;;;;;;;;;;;;28.13;37.04;100324.89;1567897;90;20189;-70
2022/07/22 11:21:23;;;;;;;;;;;;;;;28.26;37.36;100322.03;1588794;89;20192;-72
2022/07/22 11:23:51;;;;;;;;;;;;;;;28.39;36.86;100342.33;1633215;86;20456;-71
2022/07/22 11:26:22;;;;;;;;;;;;;;;28.45;37.03;100320.23;1616926;87;20182;-69
2022/07/22 11:28:48;;;;;;;;;;;;;;;28.56;37.11;100331.27;1619833;86;22174;-72
2022/07/22 11:31:16;;;;;;;;;;;;;;;28.67;36.24;100320.54;1640194;86;20206;-72
2022/07/22 11:33:45;;;;;;;;;;;;;;;28.75;35.79;100325.47;1641164;86;20243;-72
2022/07/22 11:36:11;;;;;;;;;;;;;;;28.84;34.50;100310.79;1590146;88;20195;-72
2022/07/22 11:38:48;;;;;;;;;;;;;;;28.90;34.89;100318.86;1628422;86;20594;-70
2022/07/22 11:41:27;;;;;;;;;;;;;;;28.90;35.04;100335.36;1621797;88;20229;-71
2022/07/22 11:44:00;;;;;;;;;;;;;;;28.87;34.96;100316.11;1606529;89;20587;-70
2022/07/22 11:46:37;;;;;;;;;;;;;;;28.87;35.26;100325.14;1632226;86;20143;-72
2022/07/22 11:49:05;;;;;;;;;;;;;;;28.94;34.91;100330.66;1654997;86;20483;-71
2022/07/22 11:51:32;;;;;;;;;;;;;;;29.02;34.92;100319.70;1614471;88;20204;-72
2022/07/22 11:53:59;;;;;;;;;;;;;;;29.08;35.50;100318.94;1649343;86;21098;-71
2022/07/22 11:56:25;;;;;;;;;;;;;;;29.14;34.77;100321.52;1648654;85;20152;-71
2022/07/22 11:58:55;;;;;;;;;;;;;;;29.15;34.39;100312.67;1632267;87;20454;-70
2022/07/22 12:01:26;;;;;;;;;;;;;;;29.10;34.28;100313.84;1642140;87;20151;-72
2022/07/22 12:04:05;;;;;;;;;;;;;;;29.07;34.22;100322.09;1641076;86;20480;-71
2022/07/22 12:06:36;;;;;;;;;;;;;;;29.09;34.44;100312.28;1641790;86;21899;-68
2022/07/22 12:09:06;;;;;;;;;;;;;;;29.16;34.23;100326.64;1649575;87;20147;-72
2022/07/22 12:11:32;;;;;;;;;;;;;;;29.11;34.53;100325.63;1649961;87;20147;-72
2022/07/22 12:14:08;;;;;;;;;;;;;;;29.05;34.68;100318.34;1633189;86;20462;-70
2022/07/22 12:16:34;;;;;;;;;;;;;;;29.11;34.53;100312.66;1640845;86;20226;-71
2022/07/22 12:19:06;;;;;;;;;;;;;;;29.15;34.32;100304.42;1640848;86;21194;-72
2022/07/22 12:21:36;;;;;;;;;;;;;;;29.13;34.00;100304.04;1646746;85;20131;-71
2022/07/22 12:24:06;;;;;;;;;;;;;;;29.05;33.68;100311.47;1630135;86;20151;-71
2022/07/22 12:26:41;;;;;;;;;;;;;;;28.99;33.56;100306.92;1640228;86;20143;-71
2022/07/22 12:29:30;;;;;;;;;;;;;;;28.99;33.88;100319.89;1647187;85;20168;-71
2022/07/22 12:31:59;;;;;;;;;;;;;;;29.10;34.31;100313.84;1631059;86;21195;-71
2022/07/22 12:34:40;;;;;;;;;;;;;;;29.25;33.55;100313.88;1637671;86;20203;-71
2022/07/22 12:37:25;;;;;;;;;;;;;;;29.36;34.02;100305.84;1645314;85;20150;-71
2022/07/22 12:39:57;;;;;;;;;;;;;;;29.52;33.16;100301.94;1646274;85;20155;-73
2022/07/22 12:42:26;;;;;;;;;;;;;;;29.68;33.33;100306.47;1646665;85;20656;-72
2022/07/22 12:44:55;;;;;;;;;;;;;;;29.76;32.75;100303.93;1631468;86;21870;-71
2022/07/22 12:47:49;;;;;;;;;;;;;;;29.67;33.27;100307.66;1642421;87;20233;-72
2022/07/22 12:50:33;;;;;;;;;;;;;;;29.61;33.06;100312.77;1617563;87;20289;-71
2022/07/22 12:53:04;;;;;;;;;;;;;;;29.55;32.63;100305.27;1639760;86;20763;-71